Terminal Aerodrome Forecast
Issued by NWS Wichita, KS

Home | Current Version | Previous Version | Text Only | Print | Product List | Glossary On
Versions: 1 2 3 4 5 6 7 8 9 10 11 12 13 14 15 16 17 18
000
FTUS43 KICT 290406 AAC
TAFICT
TAF AMD
KICT 290406Z 2904/2924 VRB03KT P6SM SCT035
      TEMPO 2904/2906 BKN035
     FM290600 36008KT P6SM SCT030
     FM291500 36012KT P6SM SCT035=

USA.gov is the U.S. government's official web portal to all federal, state and local government web resources and services.